Terminal Aerodrome Forecast
Issued by NWS

Home | Current Version | Previous Version | Text Only | Print | Product List | Glossary On
Versions: 1 2 3 4 5 6 7 8 9 10 11 12 13 14 15 16 17 18
387
FTUS42 KJAX 042339
TAFCRG
TAF
KCRG 042339Z 0500/0524 16008KT P6SM FEW035 SCT100 BKN250
     FM050800 20008KT P6SM SCT015 BKN035
     FM052000 20010KT 3SM SHRA SCT007 BKN015 OVC025=

USA.gov is the U.S. government's official web portal to all federal, state and local government web resources and services.